Startpagina
METAR-TAF:

METAR-TAF

Vliegvelden :

Saratoga, Wyoming, Verenigde Staten

breedte: 41-26-41N, lengte: 106-49-25W, hoogte: 2137 m

Actueel weer

Dit bericht is 24 minuten geleden gemaakt, om 11:35 UTC
Weinig wind
Temperatuur 1°C
Vochtigheid 75%
Druk 1007 hPa
Zicht: 16.1 km
Verspreide wolken op 5000 ft
Gebroken wolken op 11000 ft

METAR: KSAA 201135Z AUTO 00000KT 10SM SCT050 BKN110 01/M03 A2975 RMK AO2

Tijdstip: 04:59 (11:59 UTC)


TAF: ontbreekt

Waarnemingen en weersverwachtingen van meer dan 4000 vliegvelden (METAR en TAF).

De beschikbare stations zijn de gele en rode punten op de kaart.

Ga met uw muis naar het station om de naam te zien.

Klik dan om waarnemingen en weersverwachtingen te zien.

kaart wijzigen: klik op de groene knoppen met een zwart kruis om in te zoomen, op de groene knop met een streepje om uit te zoomen of op de groene pijlen voor aangrenzende kaarten.


METAR-TAF: